createdAt,value
2022-10-03T00:04:23.235Z,13.20
2022-10-03T00:10:25.710Z,13.20
2022-10-03T00:16:25.137Z,13.10
2022-10-03T00:22:30.183Z,13.30
2022-10-03T00:28:41.088Z,13.20
2022-10-03T00:34:47.238Z,13.20
2022-10-03T00:41:06.616Z,13.20
2022-10-03T00:47:30.269Z,13.30
2022-10-03T00:53:38.293Z,13.40
2022-10-03T00:59:48.211Z,13.20
2022-10-03T01:05:57.013Z,13.30
2022-10-03T01:12:02.287Z,13.40
2022-10-03T01:18:13.256Z,13.30
2022-10-03T01:24:34.626Z,13.30
2022-10-03T01:30:39.101Z,13.30
2022-10-03T01:36:40.622Z,13.40
2022-10-03T01:42:43.201Z,13.50
2022-10-03T01:48:46.460Z,13.50
2022-10-03T01:54:47.683Z,13.30
2022-10-03T02:00:47.953Z,13.30
2022-10-03T02:06:53.989Z,13.40
2022-10-03T02:12:54.801Z,13.20
2022-10-03T02:18:55.201Z,13.00
2022-10-03T02:24:57.240Z,13.00
2022-10-03T02:31:15.965Z,12.90
2022-10-03T02:37:46.947Z,12.80
2022-10-03T02:44:00.103Z,12.80
2022-10-03T02:50:34.156Z,12.70
2022-10-03T02:56:57.401Z,12.70
2022-10-03T03:03:24.664Z,12.70
2022-10-03T03:09:34.566Z,12.80
2022-10-03T03:16:01.304Z,12.90
2022-10-03T03:22:08.908Z,12.80
2022-10-03T03:28:24.518Z,12.70
2022-10-03T03:34:23.975Z,12.70
2022-10-03T03:40:33.037Z,12.60
2022-10-03T03:46:49.570Z,12.60
2022-10-03T03:52:55.500Z,12.50
2022-10-03T03:59:02.487Z,12.40
2022-10-03T04:05:08.745Z,12.30
2022-10-03T04:11:18.536Z,12.30
2022-10-03T04:17:49.750Z,12.20
2022-10-03T04:23:58.524Z,12.40
2022-10-03T04:30:05.882Z,12.40
2022-10-03T04:36:34.836Z,12.30
2022-10-03T04:42:45.102Z,12.20
2022-10-03T04:48:41.525Z,12.20
2022-10-03T04:54:48.799Z,12.20
2022-10-03T05:00:52.536Z,12.00
2022-10-03T05:06:55.169Z,11.90
2022-10-03T05:12:57.827Z,12.00
2022-10-03T05:18:58.071Z,11.80
2022-10-03T05:24:59.437Z,11.90
2022-10-03T05:31:01.463Z,11.90
2022-10-03T05:37:41.093Z,11.90
2022-10-03T05:43:48.217Z,12.10
2022-10-03T05:50:10.947Z,12.10
2022-10-03T05:56:10.751Z,12.00
2022-10-03T06:02:43.967Z,12.10
2022-10-03T06:08:55.955Z,12.10
2022-10-03T06:15:23.908Z,12.10
2022-10-03T06:21:42.818Z,12.20
2022-10-03T06:28:22.247Z,12.30
2022-10-03T06:34:51.583Z,12.40
2022-10-03T06:41:18.915Z,12.40
2022-10-03T06:47:24.312Z,12.50
2022-10-03T06:53:45.262Z,12.40
2022-10-03T06:59:56.958Z,12.50
2022-10-03T07:06:40.415Z,12.50
2022-10-03T07:12:55.044Z,12.60
2022-10-03T07:19:14.695Z,12.70
2022-10-03T07:25:41.968Z,12.70
2022-10-03T07:31:58.852Z,12.80
2022-10-03T07:38:38.171Z,12.90
2022-10-03T07:45:06.677Z,13.00
2022-10-03T07:51:15.015Z,13.00
2022-10-03T07:57:42.437Z,13.10
2022-10-03T08:04:04.166Z,13.30
2022-10-03T08:10:10.781Z,13.40
2022-10-03T08:16:21.698Z,13.50
2022-10-03T08:22:29.943Z,13.60
2022-10-03T08:28:50.989Z,13.80
2022-10-03T08:35:17.638Z,14.00
2022-10-03T08:42:08.463Z,14.20
2022-10-03T08:48:36.370Z,14.30
2022-10-03T08:55:00.248Z,14.50
2022-10-03T09:01:17.416Z,14.60
2022-10-03T09:07:25.929Z,14.80
2022-10-03T09:14:07.845Z,14.90
2022-10-03T09:20:25.281Z,15.00
2022-10-03T09:26:47.031Z,15.10
2022-10-03T09:33:09.263Z,15.10
2022-10-03T09:39:27.563Z,15.10
2022-10-03T09:45:42.783Z,15.20
2022-10-03T09:51:44.428Z,15.20
2022-10-03T09:58:06.518Z,15.20
2022-10-03T10:04:53.492Z,15.30
2022-10-03T10:11:12.720Z,15.50
2022-10-03T10:17:51.396Z,15.70
2022-10-03T10:23:55.926Z,16.00
2022-10-03T10:30:10.641Z,16.10
2022-10-03T10:36:41.720Z,16.50
2022-10-03T10:43:18.387Z,16.60
2022-10-03T10:50:06.051Z,16.50
2022-10-03T10:56:28.107Z,16.40
2022-10-03T11:03:11.664Z,16.30
2022-10-03T11:09:41.548Z,16.50
2022-10-03T11:16:09.713Z,16.70
2022-10-03T11:22:45.276Z,16.70
2022-10-03T11:29:24.025Z,16.50
2022-10-03T11:35:45.636Z,16.50
2022-10-03T11:41:48.871Z,16.50
2022-10-03T11:47:51.363Z,16.60
2022-10-03T11:53:50.061Z,16.60
2022-10-03T12:00:03.141Z,16.60
2022-10-03T12:06:28.794Z,16.50
2022-10-03T12:12:30.667Z,16.80
2022-10-03T12:18:34.617Z,17.10
2022-10-03T12:24:29.839Z,17.10
2022-10-03T12:30:23.417Z,17.00
2022-10-03T12:36:23.576Z,17.00
2022-10-03T12:42:28.129Z,16.90
2022-10-03T12:48:36.837Z,16.90
2022-10-03T12:54:46.807Z,16.70
2022-10-03T13:00:47.676Z,16.60
2022-10-03T13:07:04.057Z,16.60
2022-10-03T13:13:12.606Z,16.70
2022-10-03T13:19:13.908Z,16.70
2022-10-03T13:25:18.840Z,16.60
2022-10-03T13:31:19.435Z,16.60
2022-10-03T13:37:19.859Z,16.50
2022-10-03T13:43:19.152Z,16.50
2022-10-03T13:49:24.601Z,16.50
2022-10-03T13:55:48.439Z,16.50
2022-10-03T14:01:50.595Z,16.50
2022-10-03T14:07:55.381Z,16.50
2022-10-03T14:14:03.343Z,16.50
2022-10-03T14:20:15.740Z,16.60
2022-10-03T14:26:20.679Z,16.80
2022-10-03T14:32:45.570Z,16.80
2022-10-03T14:39:02.255Z,16.80
2022-10-03T14:45:00.063Z,16.80
2022-10-03T14:50:57.729Z,16.80
2022-10-03T14:56:53.112Z,16.80
2022-10-03T15:02:48.575Z,16.80
2022-10-03T15:08:45.640Z,16.70
2022-10-03T15:14:44.145Z,16.60
2022-10-03T15:20:42.119Z,16.60
2022-10-03T15:26:37.426Z,16.70
2022-10-03T15:32:36.715Z,16.80
2022-10-03T15:38:36.848Z,16.80
2022-10-03T15:44:39.371Z,16.70
2022-10-03T15:50:36.091Z,16.70
2022-10-03T15:56:38.899Z,16.60
2022-10-03T16:02:35.656Z,16.60
2022-10-03T16:08:32.371Z,16.60
2022-10-03T16:14:31.756Z,16.50
2022-10-03T16:20:30.230Z,16.40
2022-10-03T16:26:28.398Z,16.40
2022-10-03T16:32:25.933Z,16.20
2022-10-03T16:38:23.686Z,16.20
2022-10-03T16:44:24.419Z,16.20
2022-10-03T16:50:26.255Z,16.20
2022-10-03T16:56:23.469Z,16.10
2022-10-03T17:02:21.135Z,16.10
2022-10-03T17:08:40.704Z,15.90
2022-10-03T17:14:37.481Z,15.90
2022-10-03T17:20:41.137Z,15.70
2022-10-03T17:26:40.695Z,15.80
2022-10-03T17:32:38.560Z,15.60
2022-10-03T17:38:49.310Z,15.70
2022-10-03T17:44:57.572Z,15.60
2022-10-03T17:50:58.708Z,15.70
2022-10-03T17:56:55.432Z,15.50
2022-10-03T18:02:59.703Z,15.40
2022-10-03T18:08:54.188Z,15.40
2022-10-03T18:15:02.939Z,15.50
2022-10-03T18:21:05.368Z,15.40
2022-10-03T18:27:10.794Z,15.40
2022-10-03T18:33:06.839Z,15.40
2022-10-03T18:39:10.486Z,15.40
2022-10-03T18:45:03.461Z,15.40
2022-10-03T18:51:03.846Z,15.40
2022-10-03T18:57:16.011Z,15.40
2022-10-03T19:03:16.830Z,15.40
2022-10-03T19:09:19.975Z,15.50
2022-10-03T19:15:21.625Z,15.40
2022-10-03T19:21:21.370Z,15.30
2022-10-03T19:27:18.657Z,15.00
2022-10-03T19:33:22.107Z,15.00
2022-10-03T19:39:17.685Z,15.00
2022-10-03T19:45:14.509Z,15.00
2022-10-03T19:51:22.701Z,14.90
2022-10-03T19:57:20.001Z,15.10
2022-10-03T20:03:17.653Z,15.00
2022-10-03T20:09:23.527Z,15.10
2022-10-03T20:15:23.257Z,15.00
2022-10-03T20:21:21.920Z,14.90
2022-10-03T20:27:29.496Z,14.90
2022-10-03T20:33:25.820Z,14.80
2022-10-03T20:39:22.782Z,14.90
2022-10-03T20:45:23.584Z,14.80
2022-10-03T20:51:23.637Z,14.80
2022-10-03T20:57:20.848Z,14.70
2022-10-03T21:03:24.187Z,14.80
2022-10-03T21:09:20.059Z,14.80
2022-10-03T21:15:20.932Z,14.80
2022-10-03T21:21:20.349Z,14.90
2022-10-03T21:27:16.803Z,14.80
2022-10-03T21:33:12.944Z,14.90
2022-10-03T21:39:18.993Z,14.90
2022-10-03T21:45:22.837Z,14.90
2022-10-03T21:51:27.678Z,14.90
2022-10-03T21:57:29.769Z,14.90
2022-10-03T22:03:26.446Z,14.80
2022-10-03T22:09:19.823Z,14.80
2022-10-03T22:15:22.270Z,14.80
2022-10-03T22:21:26.099Z,14.70
2022-10-03T22:27:25.679Z,14.60
2022-10-03T22:33:28.121Z,14.60
2022-10-03T22:39:22.547Z,14.60
2022-10-03T22:45:17.417Z,14.50
2022-10-03T22:51:15.959Z,14.50
2022-10-03T22:57:11.898Z,14.50
2022-10-03T23:03:09.922Z,14.50
2022-10-03T23:09:13.066Z,14.40
2022-10-03T23:15:09.859Z,14.30
2022-10-03T23:21:08.425Z,14.40
2022-10-03T23:27:44.346Z,14.20
2022-10-03T23:33:53.369Z,14.00
2022-10-03T23:40:24.348Z,13.90
2022-10-03T23:46:20.809Z,14.10
2022-10-03T23:52:21.051Z,14.00
2022-10-03T23:58:29.785Z,14.00
